48.8°F
Current conditions from King Hill
Updated every 5 minutes
 
  Thursday April 24, 2014

Station Historical Data
Daily Summary for August 14, 2011 Units:  Metric    English   Both
« Previous Day
Next Day »
Daily Weekly Monthly Yearly Custom
  High: Low: Average:
Temperature: 27.6 °C 16 °C 20.7 °C
Dew Point: 19.9 °C 14 °C 17.2 °C
Humidity: 95% 57% 81%
Wind Speed: 11.3km/h 0km/h 3.4km/h
Wind Gust: 24.1km/h - -
Wind- - SSW
Pressure: 1012.4 hPa 1008 hPa -
Precipitation: 13.2 mm    
Historical Graphs
 
 
Tabular Data for August 14, 2011
Time Temperature Dew Point Pressure Wind Wind Speed Wind Gust Humidity Daily Rainfall
00:04 17.4 °C 14.1 °C 1012.4 hPa Calm   1.6 km/h 81% 0 mm
00:09 17.2 °C 14.1 °C 1012.4 hPa Calm   3.2 km/h 82% 0 mm
00:14 17.1 °C 14.2 °C 1012.4 hPa Calm   3.2 km/h 83% 0 mm
00:19 16.9 °C 14 °C 1012.4 hPa Calm   1.6 km/h 83% 0 mm
00:24 16.7 °C 14 °C 1012.4 hPa Calm     84% 0 mm
00:30 16.7 °C 14.1 °C 1012.4 hPa Calm     85% 0 mm
00:39 16.6 °C 14.2 °C 1012.1 hPa Calm     86% 0 mm
00:44 16.4 °C 14.1 °C 1012.1 hPa Calm     86% 0 mm
00:49 16.3 °C 14 °C 1012.1 hPa Calm   3.2 km/h 86% 0 mm
00:54 16.3 °C 14.1 °C 1012.1 hPa Calm   3.2 km/h 87% 0 mm
00:59 16.2 °C 14.1 °C 1012.1 hPa Calm   3.2 km/h 87% 0 mm
01:04 16.2 °C 14 °C 1012.1 hPa Calm   1.6 km/h 87% 0 mm
01:10 16.2 °C 14.2 °C 1012.1 hPa Calm   1.6 km/h 88% 0 mm
01:14 16.2 °C 14.2 °C 1011.7 hPa Calm     88% 0 mm
01:20 16.1 °C 14.1 °C 1011.7 hPa Calm     88% 0 mm
01:29 16 °C 14.2 °C 1011.7 hPa Calm   3.2 km/h 89% 0 mm
01:34 16 °C 14.2 °C 1011.7 hPa Calm   1.6 km/h 89% 0 mm
01:39 16 °C 14.2 °C 1011.7 hPa Calm   1.6 km/h 89% 0 mm
01:44 16 °C 14.4 °C 1011.7 hPa Calm   3.2 km/h 90% 0 mm
01:49 16.1 °C 14.4 °C 1011.7 hPa SSW 1.6 km/h 4.8 km/h 90% 0 mm
01:54 16.2 °C 14.7 °C 1011.7 hPa SW 1.6 km/h 8 km/h 91% 0 mm
01:59 16.4 °C 14.9 °C 1011.7 hPa SW 1.6 km/h 8 km/h 91% 0 mm
02:04 16.7 °C 15.2 °C 1011.7 hPa Calm   6.4 km/h 91% 0 mm
02:09 16.9 °C 15.2 °C 1011.7 hPa Calm   6.4 km/h 90% 0 mm
02:14 17.1 °C 15.2 °C 1011.7 hPa Calm   6.4 km/h 89% 0 mm
02:19 17.3 °C 15.3 °C 1011.4 hPa Calm   4.8 km/h 88% 0 mm
02:24 17.4 °C 15.3 °C 1011.4 hPa SW 1.6 km/h 6.4 km/h 87% 0 mm
02:29 17.6 °C 15.4 °C 1011.4 hPa Calm   6.4 km/h 87% 0 mm
02:34 17.7 °C 15.3 °C 1011.4 hPa SSW 1.6 km/h 9.7 km/h 86% 0 mm
02:39 17.8 °C 15.4 °C 1011.4 hPa Calm   9.7 km/h 86% 0 mm
02:44 17.8 °C 15.4 °C 1011.4 hPa Calm   1.6 km/h 86% 0 mm
02:49 17.9 °C 15.3 °C 1011.4 hPa Calm   1.6 km/h 85% 0 mm
02:54 17.9 °C 15.4 °C 1011.4 hPa Calm   1.6 km/h 85% 0 mm
02:59 18 °C 15.4 °C 1011.1 hPa Calm   3.2 km/h 85% 0 mm
03:04 18.1 °C 15.3 °C 1011.1 hPa SSW 1.6 km/h 4.8 km/h 84% 0 mm
03:09 18.1 °C 15.3 °C 1011.1 hPa Calm   4.8 km/h 84% 0 mm
03:14 18 °C 15.3 °C 1011.1 hPa Calm   3.2 km/h 84% 0 mm
03:19 17.8 °C 15.1 °C 1011.1 hPa Calm   9.7 km/h 84% 0 mm
03:25 17.6 °C 15.1 °C 1011.1 hPa Calm   9.7 km/h 85% 0 mm
03:30 17.4 °C 14.9 °C 1011.1 hPa SSW 1.6 km/h 6.4 km/h 85% 0 mm
03:34 17.3 °C 14.9 °C 1010.7 hPa Calm   6.4 km/h 86% 0 mm
03:39 17.1 °C 14.8 °C 1010.7 hPa Calm   3.2 km/h 86% 0 mm
03:44 17 °C 14.7 °C 1010.7 hPa Calm   4.8 km/h 86% 0 mm
03:49 17 °C 15 °C 1010.7 hPa SW 1.6 km/h 8 km/h 88% 0 mm
03:54 17.1 °C 14.9 °C 1010.7 hPa Calm   8 km/h 87% 0 mm
03:59 17.1 °C 14.8 °C 1010.7 hPa Calm   1.6 km/h 86% 0 mm
04:04 17.2 °C 14.8 °C 1010.7 hPa SSW 1.6 km/h 6.4 km/h 86% 0 mm
04:09 17.4 °C 15.1 °C 1010.7 hPa Calm   6.4 km/h 86% 0 mm
04:14 17.6 °C 15 °C 1010.7 hPa Calm   6.4 km/h 85% 0 mm
04:19 17.7 °C 15.2 °C 1011.1 hPa Calm   6.4 km/h 85% 0 mm
04:24 17.8 °C 15.2 °C 1010.7 hPa Calm   6.4 km/h 85% 0 mm
04:29 17.9 °C 15.2 °C 1010.7 hPa Calm   3.2 km/h 84% 0 mm
04:34 18.1 °C 15.3 °C 1011.1 hPa Calm   1.6 km/h 84% 0 mm
04:39 18.2 °C 15.2 °C 1010.7 hPa Calm   1.6 km/h 83% 0 mm
04:44 18.2 °C 15.3 °C 1010.7 hPa Calm   6.4 km/h 83% 0 mm
04:49 18.3 °C 15.2 °C 1010.7 hPa Calm   6.4 km/h 82% 0 mm
04:55 18.2 °C 15.3 °C 1010.7 hPa Calm   1.6 km/h 83% 0 mm
05:04 18.1 °C 15.1 °C 1010.7 hPa Calm   6.4 km/h 83% 0 mm
05:09 17.9 °C 15 °C 1010.7 hPa Calm   6.4 km/h 83% 0 mm
05:14 17.9 °C 14.9 °C 1010.7 hPa Calm   1.6 km/h 83% 0 mm
05:19 17.8 °C 14.8 °C 1011.1 hPa SSW 1.6 km/h 8 km/h 83% 0 mm
05:24 17.7 °C 15 °C 1011.1 hPa SSW 1.6 km/h 8 km/h 84% 0 mm
05:29 17.7 °C 15 °C 1011.1 hPa Calm   8 km/h 84% 0 mm
05:34 17.7 °C 15 °C 1010.7 hPa Calm   6.4 km/h 84% 0 mm
05:39 17.7 °C 15.1 °C 1011.1 hPa SW 1.6 km/h 8 km/h 85% 0 mm
05:44 17.7 °C 15.2 °C 1011.1 hPa Calm   8 km/h 85% 0 mm
05:49 17.7 °C 15 °C 1010.7 hPa Calm   4.8 km/h 84% 0 mm
05:54 17.7 °C 15 °C 1010.7 hPa Calm   4.8 km/h 84% 0 mm
05:59 17.7 °C 15 °C 1010.7 hPa Calm   1.6 km/h 84% 0 mm
06:04 17.8 °C 15.1 °C 1010.7 hPa SW 3.2 km/h 8 km/h 84% 0 mm
06:09 17.8 °C 15.1 °C 1010.7 hPa SW 1.6 km/h 8 km/h 84% 0 mm
06:14 17.8 °C 15.1 °C 1010.7 hPa Calm   6.4 km/h 84% 0 mm
06:19 17.9 °C 15.2 °C 1010.7 hPa Calm   1.6 km/h 84% 0 mm
06:24 17.8 °C 15.1 °C 1011.1 hPa Calm   3.2 km/h 84% 0 mm
06:29 17.8 °C 15.3 °C 1010.7 hPa Calm   3.2 km/h 85% 0 mm
06:34 17.8 °C 15.3 °C 1011.1 hPa SW 1.6 km/h 6.4 km/h 85% 0 mm
06:39 17.9 °C 15.3 °C 1011.1 hPa SW 1.6 km/h 6.4 km/h 85% 0 mm
06:44 17.9 °C 15.4 °C 1011.1 hPa SSW 3.2 km/h 8 km/h 85% 0 mm
06:49 18.1 °C 15.5 °C 1011.1 hPa Calm   11.3 km/h 85% 0 mm
06:54 18.2 °C 15.4 °C 1010.7 hPa SSW 1.6 km/h 11.3 km/h 84% 0 mm
06:59 18.3 °C 15.6 °C 1011.1 hPa Calm   11.3 km/h 84% 0 mm
07:04 18.3 °C 15.6 °C 1011.1 hPa SW 1.6 km/h 9.7 km/h 84% 0 mm
07:09 18.3 °C 15.6 °C 1011.1 hPa Calm   9.7 km/h 84% 0 mm
07:14 18.3 °C 15.6 °C 1011.1 hPa Calm   1.6 km/h 84% 0 mm
07:19 18.4 °C 15.6 °C 1011.1 hPa Calm   6.4 km/h 84% 0 mm
07:24 18.5 °C 15.9 °C 1011.1 hPa Calm   6.4 km/h 85% 0 mm
07:29 18.7 °C 16.1 °C 1011.1 hPa Calm   1.6 km/h 85% 0 mm
07:34 18.9 °C 16.2 °C 1011.1 hPa SW 1.6 km/h 8 km/h 84% 0 mm
07:39 19.3 °C 16.3 °C 1011.1 hPa SW 1.6 km/h 8 km/h 83% 0 mm
07:44 19.6 °C 16.4 °C 1011.1 hPa Calm   8 km/h 82% 0 mm
07:50 19.9 °C 16.6 °C 1011.1 hPa SW 3.2 km/h 11.3 km/h 81% 0 mm
07:54 20.3 °C 16.6 °C 1011.1 hPa SSW 3.2 km/h 11.3 km/h 79% 0 mm
07:59 20.7 °C 16.9 °C 1011.1 hPa Calm   11.3 km/h 79% 0 mm
08:04 20.8 °C 16.8 °C 1011.1 hPa SSW 1.6 km/h 11.3 km/h 78% 0 mm
08:09 20.8 °C 16.7 °C 1011.1 hPa SW 1.6 km/h 11.3 km/h 77% 0 mm
08:14 20.8 °C 16.8 °C 1011.1 hPa SSW 1.6 km/h 12.9 km/h 78% 0 mm
08:19 20.8 °C 17 °C 1011.1 hPa Calm   12.9 km/h 79% 0 mm
08:24 21 °C 16.8 °C 1011.1 hPa SSW 1.6 km/h 11.3 km/h 77% 0 mm
08:29 21.1 °C 16.9 °C 1011.1 hPa SSW 4.8 km/h 12.9 km/h 77% 0 mm
08:35 21.2 °C 17.2 °C 1011.1 hPa SW 3.2 km/h 16.1 km/h 78% 0 mm
08:39 21.4 °C 17.2 °C 1011.4 hPa South 1.6 km/h 16.1 km/h 77% 0 mm
08:44 21.8 °C 17.2 °C 1011.1 hPa South 3.2 km/h 12.9 km/h 75% 0 mm
08:49 21.9 °C 17.3 °C 1011.1 hPa SSE 1.6 km/h 14.5 km/h 75% 0 mm
08:55 21.9 °C 17.1 °C 1011.1 hPa SW 1.6 km/h 14.5 km/h 74% 0 mm
09:04 22.2 °C 17.6 °C 1011.1 hPa SSW 1.6 km/h 17.7 km/h 75% 0 mm
09:09 21.9 °C 17.3 °C 1011.1 hPa SSW 4.8 km/h 17.7 km/h 75% 0 mm
09:14 22 °C 17.6 °C 1011.1 hPa SSW 3.2 km/h 16.1 km/h 76% 0 mm
09:19 22.2 °C 17.7 °C 1011.1 hPa SSE 1.6 km/h 16.1 km/h 76% 0 mm
09:24 22.2 °C 17.7 °C 1011.1 hPa SW 3.2 km/h 16.1 km/h 76% 0 mm
09:29 22.2 °C 17.9 °C 1011.1 hPa Calm   12.9 km/h 77% 0 mm
09:34 22.2 °C 17.8 °C 1011.1 hPa Calm   11.3 km/h 76% 0 mm
09:39 22.2 °C 17.8 °C 1011.1 hPa South 4.8 km/h 14.5 km/h 76% 0 mm
09:44 22.3 °C 17.9 °C 1011.1 hPa SSW 1.6 km/h 14.5 km/h 76% 0 mm
09:49 22.4 °C 17.7 °C 1011.1 hPa SSW 3.2 km/h 11.3 km/h 75% 0 mm
09:54 22.4 °C 17.6 °C 1011.1 hPa Calm   11.3 km/h 74% 0 mm
09:59 22.3 °C 17.7 °C 1011.1 hPa SSW 4.8 km/h 12.9 km/h 75% 0 mm
10:04 22.3 °C 17.9 °C 1011.1 hPa SW 3.2 km/h 12.9 km/h 76% 0 mm
10:09 22.4 °C 18.2 °C 1011.1 hPa West 1.6 km/h 11.3 km/h 77% 0 mm
10:14 22.4 °C 17.9 °C 1011.1 hPa SSW 3.2 km/h 14.5 km/h 76% 0 mm
10:19 22.4 °C 17.8 °C 1011.1 hPa SW 6.4 km/h 14.5 km/h 75% 0 mm
10:24 22.8 °C 18.8 °C 1010.7 hPa West 3.2 km/h 12.9 km/h 78% 0 mm
10:29 23.3 °C 18.2 °C 1010.7 hPa SSW 6.4 km/h 17.7 km/h 73% 0 mm
10:34 23.3 °C 18 °C 1010.7 hPa SW 4.8 km/h 20.9 km/h 72% 0 mm
10:39 22.9 °C 18.3 °C 1010.7 hPa SW 3.2 km/h 20.9 km/h 75% 0 mm
10:44 22.9 °C 18 °C 1010.7 hPa SW 1.6 km/h 19.3 km/h 74% 0 mm
10:49 23.1 °C 17.9 °C 1010.7 hPa SW 11.3 km/h 19.3 km/h 73% 0 mm
10:54 23.1 °C 18.4 °C 1010.7 hPa SW 6.4 km/h 19.3 km/h 75% 0 mm
10:59 23.1 °C 18.4 °C 1010.7 hPa South 3.2 km/h 17.7 km/h 75% 0 mm
11:04 23.2 °C 18.1 °C 1010.7 hPa WSW 6.4 km/h 16.1 km/h 73% 0 mm
11:10 23.4 °C 18.7 °C 1010.7 hPa WSW 1.6 km/h 16.1 km/h 75% 0 mm
11:19 23.9 °C 18.6 °C 1010.7 hPa SSE 4.8 km/h 17.7 km/h 72% 0 mm
11:24 24.1 °C 18.8 °C 1010.4 hPa SSE 1.6 km/h 17.7 km/h 72% 0 mm
11:29 24.4 °C 19.3 °C 1010.4 hPa SW 1.6 km/h 14.5 km/h 73% 0 mm
11:34 24.6 °C 18.9 °C 1010.4 hPa SSW 3.2 km/h 16.1 km/h 71% 0 mm
11:39 24.9 °C 19.3 °C 1010.4 hPa SW 4.8 km/h 16.1 km/h 71% 0 mm
11:44 25.1 °C 18.7 °C 1010.4 hPa SSW 1.6 km/h 14.5 km/h 68% 0 mm
11:49 24.9 °C 19.1 °C 1010.4 hPa WSW 4.8 km/h 17.7 km/h 70% 0 mm
11:54 25.2 °C 19.1 °C 1010.4 hPa WSW 6.4 km/h 17.7 km/h 69% 0 mm
11:59 25 °C 18.2 °C 1010.4 hPa WSW 8 km/h 16.1 km/h 66% 0 mm
12:04 25.1 °C 19.2 °C 1010 hPa SW 1.6 km/h 16.1 km/h 70% 0 mm
12:09 25.2 °C 18.7 °C 1010 hPa SSW 3.2 km/h 12.9 km/h 67% 0 mm
12:14 25.4 °C 19.3 °C 1010 hPa SW 1.6 km/h 12.9 km/h 69% 0 mm
12:19 25.8 °C 19.9 °C 1010 hPa SW 1.6 km/h 9.7 km/h 70% 0 mm
12:29 25.7 °C 19.1 °C 1010 hPa SW 1.6 km/h 16.1 km/h 67% 0 mm
12:35 25.7 °C 19.2 °C 1010 hPa Calm   16.1 km/h 67% 0 mm
12:39 25.7 °C 19.2 °C 1010 hPa SW 1.6 km/h 14.5 km/h 67% 0 mm
12:44 26.1 °C 19.4 °C 1010 hPa WSW 1.6 km/h 14.5 km/h 67% 0 mm
12:49 26.4 °C 19.8 °C 1010 hPa SW 1.6 km/h 14.5 km/h 67% 0 mm
12:54 26.6 °C 18.4 °C 1010 hPa WSW 4.8 km/h 16.1 km/h 61% 0 mm
12:59 26.7 °C 19.3 °C 1009.7 hPa West 1.6 km/h 17.7 km/h 64% 0 mm
13:04 26.6 °C 19.2 °C 1009.7 hPa South 1.6 km/h 17.7 km/h 64% 0 mm
13:10 26.7 °C 19.8 °C 1009.7 hPa SSW 1.6 km/h 17.7 km/h 66% 0 mm
13:19 26.6 °C 19 °C 1009.4 hPa SW 6.4 km/h 16.1 km/h 63% 0 mm
13:24 26.8 °C 19.4 °C 1009.7 hPa Calm   12.9 km/h 64% 0 mm
13:29 26.5 °C 18.4 °C 1009.4 hPa WSW 6.4 km/h 16.1 km/h 61% 0 mm
13:34 26 °C 18.2 °C 1009.4 hPa SSW 1.6 km/h 16.1 km/h 62% 0 mm
13:39 26.1 °C 18.7 °C 1009.4 hPa SW 1.6 km/h 12.9 km/h 64% 0 mm
13:44 25.9 °C 18.1 °C 1009.4 hPa South 6.4 km/h 12.9 km/h 62% 0 mm
13:49 25.5 °C 18.9 °C 1009.4 hPa SSW 1.6 km/h 14.5 km/h 67% 0 mm
13:54 25.6 °C 18.7 °C 1009.4 hPa SW 4.8 km/h 14.5 km/h 66% 0 mm
13:59 25.8 °C 18.7 °C 1009.4 hPa SSW 4.8 km/h 11.3 km/h 65% 0 mm
14:04 26 °C 19.2 °C 1009.4 hPa Calm   14.5 km/h 66% 0 mm
14:09 26.5 °C 19.2 °C 1009.4 hPa WSW 4.8 km/h 16.1 km/h 64% 0 mm
14:14 26.9 °C 19.3 °C 1009.4 hPa WSW 4.8 km/h 16.1 km/h 63% 0 mm
14:19 27.1 °C 19.9 °C 1009 hPa SSW 1.6 km/h 19.3 km/h 65% 0 mm
14:24 27.3 °C 19.7 °C 1009 hPa WSW 4.8 km/h 19.3 km/h 63% 0 mm
14:29 27.5 °C 19.1 °C 1009 hPa SSW 3.2 km/h 14.5 km/h 60% 0 mm
14:35 27.6 °C 18.6 °C 1008.7 hPa SSW 4.8 km/h 17.7 km/h 58% 0 mm
14:45 27.5 °C 18.2 °C 1008.7 hPa SW 4.8 km/h 19.3 km/h 57% 0 mm
14:49 27.4 °C 18.1 °C 1008.7 hPa SSW 3.2 km/h 19.3 km/h 57% 0 mm
14:54 27.3 °C 18.8 °C 1008.7 hPa SSE 6.4 km/h 20.9 km/h 60% 0 mm
14:59 27.2 °C 18.3 °C 1008.7 hPa SW 6.4 km/h 24.1 km/h 58% 0 mm
15:04 27.2 °C 18.8 °C 1008.4 hPa SSE 8 km/h 24.1 km/h 60% 0 mm
15:09 27.2 °C 18.7 °C 1008.4 hPa WSW 1.6 km/h 20.9 km/h 60% 0 mm
15:14 26.9 °C 18.8 °C 1008.4 hPa SSW 6.4 km/h 16.1 km/h 61% 0 mm
15:19 26.6 °C 18.5 °C 1008.4 hPa SW 3.2 km/h 16.1 km/h 61% 0 mm
15:24 26.5 °C 18.1 °C 1008.4 hPa WSW 4.8 km/h 16.1 km/h 60% 0 mm
15:29 26.2 °C 18.6 °C 1008.4 hPa Calm   16.1 km/h 63% 0 mm
15:34 26.1 °C 18.7 °C 1008.4 hPa Calm   9.7 km/h 64% 0 mm
15:39 26.1 °C 18.8 °C 1008.4 hPa SW 1.6 km/h 8 km/h 64% 0 mm
15:44 26.3 °C 18.7 °C 1008.4 hPa Calm   8 km/h 63% 0 mm
15:49 26.3 °C 18.4 °C 1008.4 hPa SW 8 km/h 16.1 km/h 62% 0 mm
15:54 26.1 °C 18.2 °C 1008.4 hPa SW 4.8 km/h 16.1 km/h 62% 0 mm
15:59 25.9 °C 18.9 °C 1008.4 hPa WSW 3.2 km/h 12.9 km/h 65% 0 mm
16:04 26 °C 18.7 °C 1008.4 hPa SW 4.8 km/h 17.7 km/h 64% 0 mm
16:09 26.3 °C 19.4 °C 1008 hPa SW 1.6 km/h 17.7 km/h 66% 0 mm
16:14 26.8 °C 19.2 °C 1008.4 hPa SW 4.8 km/h 11.3 km/h 63% 0 mm
16:19 27.1 °C 19.7 °C 1008 hPa SSW 6.4 km/h 14.5 km/h 64% 0 mm
16:24 26.9 °C 18.6 °C 1008.4 hPa SW 6.4 km/h 16.1 km/h 60% 0 mm
16:29 26.4 °C 18.8 °C 1008.4 hPa SSE 6.4 km/h 16.1 km/h 63% 0 mm
16:34 25.6 °C 17.2 °C 1008.4 hPa South 4.8 km/h 19.3 km/h 60% 0 mm
16:39 24.9 °C 17.6 °C 1008.7 hPa South 3.2 km/h 19.3 km/h 64% 0 mm
16:44 24.1 °C 17.6 °C 1008.7 hPa SE 1.6 km/h 17.7 km/h 67% 0 mm
16:49 23.5 °C 18.4 °C 1009 hPa South 3.2 km/h 17.7 km/h 73% 0 mm
16:54 22.4 °C 17.9 °C 1009.4 hPa SSW 9.7 km/h 24.1 km/h 76% 3.6 mm
17:00 21 °C 17.4 °C 1009 hPa SSW 1.6 km/h 24.1 km/h 80% 6.6 mm
17:09 19.6 °C 16.8 °C 1009 hPa Calm   14.5 km/h 84% 10.2 mm
17:14 19.4 °C 17.2 °C 1009 hPa SSE 1.6 km/h 14.5 km/h 87% 12.4 mm
17:19 19.3 °C 17.1 °C 1008.7 hPa SSE 3.2 km/h 14.5 km/h 87% 13.2 mm
17:24 19.4 °C 17.6 °C 1008.7 hPa Calm   14.5 km/h 89% 13.2 mm
17:29 19.7 °C 18 °C 1008.7 hPa South 4.8 km/h 11.3 km/h 90% 13.2 mm
17:34 19.9 °C 18.3 °C 1008.7 hPa Calm   11.3 km/h 90% 13.2 mm
17:39 20.3 °C 18.8 °C 1008.4 hPa Calm   8 km/h 91% 13.2 mm
17:44 20.7 °C 19.3 °C 1008.7 hPa Calm   8 km/h 92% 13.2 mm
17:49 20.9 °C 19.6 °C 1008.7 hPa Calm   6.4 km/h 92% 13.2 mm
17:54 21.1 °C 19.8 °C 1008.7 hPa Calm   6.4 km/h 92% 13.2 mm
17:59 21.1 °C 19.6 °C 1008.7 hPa Calm   1.6 km/h 91% 13.2 mm
18:04 20.9 °C 19.2 °C 1009 hPa Calm   6.4 km/h 90% 13.2 mm
18:09 21 °C 19.5 °C 1009 hPa Calm   6.4 km/h 91% 13.2 mm
18:15 21 °C 19.5 °C 1009 hPa Calm   1.6 km/h 91% 13.2 mm
18:24 20.9 °C 19.4 °C 1009 hPa Calm   1.6 km/h 91% 13.2 mm
18:29 20.8 °C 19.3 °C 1008.7 hPa Calm   1.6 km/h 91% 13.2 mm
18:39 20.6 °C 19.1 °C 1009 hPa Calm   1.6 km/h 91% 13.2 mm
18:44 20.6 °C 19.1 °C 1009 hPa Calm   4.8 km/h 91% 13.2 mm
18:49 20.5 °C 19 °C 1009 hPa Calm   4.8 km/h 91% 13.2 mm
18:54 20.4 °C 18.9 °C 1009 hPa SSE 1.6 km/h 4.8 km/h 91% 13.2 mm
18:59 20.4 °C 18.9 °C 1009 hPa Calm   4.8 km/h 91% 13.2 mm
19:04 20.4 °C 19.1 °C 1009 hPa Calm   1.6 km/h 92% 13.2 mm
19:09 20.3 °C 18.8 °C 1009 hPa Calm   1.6 km/h 91% 13.2 mm
19:14 20.2 °C 18.7 °C 1008.7 hPa Calm   1.6 km/h 91% 13.2 mm
19:19 20.1 °C 18.6 °C 1008.7 hPa Calm   4.8 km/h 91% 13.2 mm
19:24 20 °C 18.7 °C 1009 hPa Calm   4.8 km/h 92% 13.2 mm
19:29 19.9 °C 18.6 °C 1008.7 hPa Calm   8 km/h 92% 13.2 mm
19:34 19.8 °C 18.5 °C 1008.7 hPa SSE 3.2 km/h 9.7 km/h 92% 13.2 mm
19:39 19.8 °C 18.5 °C 1008.7 hPa Calm   9.7 km/h 92% 13.2 mm
19:44 19.8 °C 18.5 °C 1008.7 hPa SE 1.6 km/h 9.7 km/h 92% 13.2 mm
19:49 19.8 °C 18.3 °C 1009 hPa South 1.6 km/h 11.3 km/h 91% 13.2 mm
19:54 19.8 °C 18.3 °C 1009 hPa SSE 1.6 km/h 11.3 km/h 91% 13.2 mm
19:59 19.8 °C 18.3 °C 1009 hPa Calm   11.3 km/h 91% 13.2 mm
20:04 19.7 °C 18.2 °C 1009 hPa SSE 3.2 km/h 6.4 km/h 91% 13.2 mm
20:09 19.7 °C 18.2 °C 1009 hPa Calm   6.4 km/h 91% 13.2 mm
20:14 19.6 °C 18.1 °C 1009 hPa Calm   6.4 km/h 91% 13.2 mm
20:19 19.6 °C 18.1 °C 1009.4 hPa Calm   4.8 km/h 91% 13.2 mm
20:24 19.6 °C 18.1 °C 1009.4 hPa Calm     91% 13.2 mm
20:30 19.4 °C 17.9 °C 1009.4 hPa Calm     91% 13.2 mm
20:35 19.3 °C 17.8 °C 1009.4 hPa Calm     91% 13.2 mm
20:40 19.2 °C 17.7 °C 1009.4 hPa Calm     91% 13.2 mm
20:44 19.1 °C 17.8 °C 1009.7 hPa Calm     92% 13.2 mm
20:49 19 °C 17.5 °C 1009.7 hPa Calm     91% 13.2 mm
20:54 19 °C 17.7 °C 1009.7 hPa Calm     92% 13.2 mm
20:59 18.9 °C 17.6 °C 1009.7 hPa Calm     92% 13.2 mm
21:04 18.9 °C 17.6 °C 1009.7 hPa Calm     92% 13.2 mm
21:09 18.8 °C 17.5 °C 1009.7 hPa Calm     92% 13.2 mm
21:14 18.9 °C 17.7 °C 1009.7 hPa Calm     93% 13.2 mm
21:19 18.8 °C 17.7 °C 1009.7 hPa Calm   1.6 km/h 93% 13.2 mm
21:25 18.9 °C 17.7 °C 1010 hPa Calm   3.2 km/h 93% 13.2 mm
21:34 18.8 °C 17.6 °C 1009.7 hPa Calm     93% 13.2 mm
21:39 18.8 °C 17.8 °C 1009.7 hPa Calm     94% 13.2 mm
21:44 18.8 °C 17.8 °C 1009.7 hPa Calm     94% 13.2 mm
21:49 18.7 °C 17.7 °C 1009.7 hPa Calm     94% 13.2 mm
21:54 18.7 °C 17.7 °C 1009.7 hPa Calm   3.2 km/h 94% 13.2 mm
21:59 18.6 °C 17.6 °C 1009.7 hPa Calm   3.2 km/h 94% 13.2 mm
22:04 18.6 °C 17.6 °C 1009.7 hPa Calm     94% 13.2 mm
22:09 18.6 °C 17.6 °C 1009.7 hPa SW 1.6 km/h 4.8 km/h 94% 13.2 mm
22:14 18.6 °C 17.6 °C 1009.4 hPa Calm   4.8 km/h 94% 13.2 mm
22:19 18.6 °C 17.6 °C 1009.7 hPa Calm     94% 13.2 mm
22:24 18.5 °C 17.5 °C 1009.4 hPa Calm   3.2 km/h 94% 13.2 mm
22:29 18.4 °C 17.4 °C 1009.4 hPa Calm   3.2 km/h 94% 13.2 mm
22:34 18.4 °C 17.4 °C 1009.4 hPa Calm   1.6 km/h 94% 13.2 mm
22:39 18.3 °C 17.3 °C 1009.4 hPa Calm     94% 13.2 mm
22:44 18.3 °C 17.5 °C 1009.4 hPa Calm     95% 13.2 mm
22:49 18.3 °C 17.4 °C 1009.4 hPa Calm     95% 13.2 mm
22:54 18.2 °C 17.4 °C 1009.4 hPa Calm     95% 13.2 mm
22:59 18.1 °C 17.1 °C 1009.4 hPa Calm     94% 13.2 mm
23:04 18.1 °C 17.2 °C 1009.4 hPa Calm     95% 13.2 mm
23:09 18.1 °C 17.2 °C 1009.4 hPa Calm     95% 13.2 mm
23:14 18.1 °C 17.2 °C 1009.4 hPa Calm     95% 13.2 mm
23:19 18.1 °C 17.2 °C 1009.4 hPa Calm     95% 13.2 mm
23:24 18.1 °C 17.2 °C 1009.7 hPa Calm     95% 13.2 mm
23:29 17.9 °C 17.1 °C 1009.4 hPa Calm     95% 13.2 mm
23:34 17.9 °C 17.1 °C 1009.7 hPa Calm     95% 13.2 mm
23:39 17.9 °C 17.1 °C 1009.7 hPa Calm     95% 13.2 mm
23:44 17.9 °C 17.1 °C 1009.7 hPa Calm   1.6 km/h 95% 13.2 mm
23:49 17.9 °C 17.1 °C 1009.7 hPa Calm   1.6 km/h 95% 13.2 mm
23:54 17.8 °C 17 °C 1009.7 hPa Calm     95% 13.2 mm
Westford Weather
Compliments of Weather Underground

 
 
Current Radar Loop:

Copyright © WestfordWeather.net 2007-2014. All rights reserved.